Time;durP1;ratioP1;P1;durP2;ratioP2;P2;SDS_P1;SDS_P2;PMS_P1;PMS_P2;Temp;Humidity;BMP_temperature;BMP_pressure;BME280_temperature;BME280_humidity;BME280_pressure;Samples;Min_cycle;Max_cycle;Signal;HPM_P1;HPM_P2
2022/01/16 00:04:16;;;;;;;17.80;11.48;;;;;;;;;;5073038;28;20044;-67
2022/01/16 00:06:45;;;;;;;23.48;12.40;;;;;;;;;;5072730;28;20074;-68
2022/01/16 00:09:11;;;;;;;23.15;11.73;;;;;;;;;;5070967;28;20029;-68
2022/01/16 00:11:38;;;;;;;27.33;13.32;;;;;;;;;;5072333;28;20051;-67
2022/01/16 00:14:05;;;;;;;20.77;10.65;;;;;;;;;;5072591;28;20020;-66
2022/01/16 00:16:31;;;;;;;17.65;9.50;;;;;;;;;;5071872;28;20420;-69
2022/01/16 00:18:57;;;;;;;19.00;10.90;;;;;;;;;;5072238;28;20532;-67
2022/01/16 00:21:26;;;;;;;19.48;11.88;;;;;;;;;;5072394;28;20279;-68
2022/01/16 00:23:53;;;;;;;17.40;11.05;;;;;;;;;;5072125;28;20507;-67
2022/01/16 00:26:20;;;;;;;17.38;10.73;;;;;;;;;;5071874;28;20028;-67
2022/01/16 00:28:45;;;;;;;20.00;10.45;;;;;;;;;;5072152;28;20044;-68
2022/01/16 00:31:11;;;;;;;16.60;10.40;;;;;;;;;;5071839;28;20497;-68
2022/01/16 00:33:42;;;;;;;21.17;11.18;;;;;;;;;;5071948;28;20086;-68
2022/01/16 00:36:07;;;;;;;;;;;;;;;;;;5071905;28;20036;-66
2022/01/16 00:38:33;;;;;;;17.08;10.23;;;;;;;;;;5071950;28;19912;-67
2022/01/16 00:40:59;;;;;;;20.90;11.63;;;;;;;;;;5072230;28;20093;-67
2022/01/16 00:43:24;;;;;;;20.52;11.77;;;;;;;;;;5071659;28;20021;-67
2022/01/16 00:45:49;;;;;;;22.38;11.40;;;;;;;;;;5071299;28;20033;-68
2022/01/16 00:48:15;;;;;;;18.95;10.38;;;;;;;;;;5070262;28;20055;-68
2022/01/16 00:50:40;;;;;;;18.13;10.27;;;;;;;;;;5071587;28;20705;-69
2022/01/16 00:53:07;;;;;;;19.30;10.77;;;;;;;;;;5071964;28;20024;-68
2022/01/16 00:55:32;;;;;;;19.42;9.95;;;;;;;;;;5071232;28;20020;-68
2022/01/16 00:57:58;;;;;;;18.58;10.35;;;;;;;;;;5071489;28;20043;-68
2022/01/16 01:00:24;;;;;;;16.55;10.05;;;;;;;;;;5071216;28;20044;-68
2022/01/16 01:02:53;;;;;;;16.75;10.68;;;;;;;;;;5071244;28;20024;-69
2022/01/16 01:05:18;;;;;;;16.65;10.50;;;;;;;;;;5071100;28;20039;-66
2022/01/16 01:07:44;;;;;;;18.10;10.43;;;;;;;;;;5071557;28;20462;-69
2022/01/16 01:10:09;;;;;;;18.33;10.55;;;;;;;;;;5071731;28;20021;-68
2022/01/16 01:12:56;;;;;;;20.02;10.10;;;;;;;;;;5071713;28;20090;-68
2022/01/16 01:15:29;;;;;;;18.63;10.68;;;;;;;;;;5071083;28;20028;-68
2022/01/16 01:17:54;;;;;;;18.90;10.93;;;;;;;;;;5070830;28;20064;-68
2022/01/16 01:20:21;;;;;;;17.95;10.40;;;;;;;;;;5070853;28;20067;-67
2022/01/16 01:22:50;;;;;;;18.92;11.02;;;;;;;;;;5070742;28;20028;-67
2022/01/16 01:25:16;;;;;;;17.88;10.48;;;;;;;;;;5071034;28;20031;-67
2022/01/16 01:27:43;;;;;;;16.58;11.10;;;;;;;;;;5070831;28;20508;-68
2022/01/16 01:30:11;;;;;;;18.02;10.30;;;;;;;;;;5070730;28;20028;-66
2022/01/16 01:32:38;;;;;;;18.65;9.95;;;;;;;;;;5070856;28;20028;-69
2022/01/16 01:35:08;;;;;;;19.73;10.85;;;;;;;;;;5070305;28;20085;-68
2022/01/16 01:37:34;;;;;;;20.33;10.82;;;;;;;;;;5070279;28;20020;-68
2022/01/16 01:40:01;;;;;;;19.77;11.40;;;;;;;;;;5070839;28;20066;-68
2022/01/16 01:42:35;;;;;;;21.42;11.48;;;;;;;;;;5070644;28;20434;-68
2022/01/16 01:53:16;;;;;;;17.27;9.65;;;;;;;;;;5070197;28;20515;-69
2022/01/16 01:55:43;;;;;;;20.30;11.73;;;;;;;;;;5070144;28;20174;-69
2022/01/16 01:58:10;;;;;;;21.30;11.63;;;;;;;;;;5070818;28;20024;-69
2022/01/16 02:00:37;;;;;;;19.85;11.30;;;;;;;;;;5070175;28;20044;-69
2022/01/16 02:05:57;;;;;;;21.10;11.32;;;;;;;;;;5055843;28;20353;-67
2022/01/16 02:08:23;;;;;;;21.17;12.57;;;;;;;;;;5069975;28;20024;-68
2022/01/16 02:10:49;;;;;;;20.27;11.73;;;;;;;;;;5069999;28;20052;-69
2022/01/16 02:13:28;;;;;;;23.40;12.52;;;;;;;;;;5070282;28;20043;-69
2022/01/16 02:34:45;;;;;;;20.13;11.30;;;;;;;;;;5041011;28;20116;-69
2022/01/16 02:37:14;;;;;;;18.88;11.35;;;;;;;;;;5069482;28;20036;-69
2022/01/16 02:39:42;;;;;;;20.58;11.15;;;;;;;;;;5069921;28;20033;-68
2022/01/16 02:42:10;;;;;;;22.25;11.77;;;;;;;;;;5069655;28;20491;-68
2022/01/16 02:44:48;;;;;;;17.75;10.48;;;;;;;;;;5069642;28;20031;-68
2022/01/16 02:47:20;;;;;;;17.70;10.68;;;;;;;;;;5072523;28;20028;-68
2022/01/16 02:49:49;;;;;;;17.67;10.20;;;;;;;;;;5074137;28;20028;-67
2022/01/16 02:52:18;;;;;;;18.60;9.87;;;;;;;;;;5074042;28;20029;-68
2022/01/16 02:54:47;;;;;;;16.48;9.45;;;;;;;;;;5073910;28;20035;-68
2022/01/16 02:57:15;;;;;;;19.25;8.93;;;;;;;;;;5073721;28;20171;-67
2022/01/16 02:59:50;;;;;;;16.23;9.07;;;;;;;;;;5073573;28;20583;-68
2022/01/16 03:02:17;;;;;;;15.10;8.73;;;;;;;;;;5073760;28;20051;-66
2022/01/16 03:04:43;;;;;;;18.73;8.95;;;;;;;;;;5073520;28;20464;-68
2022/01/16 03:07:09;;;;;;;14.52;8.63;;;;;;;;;;5073569;28;20086;-68
2022/01/16 03:12:09;;;;;;;16.65;8.82;;;;;;;;;;5073551;28;20024;-68
2022/01/16 03:14:36;;;;;;;16.50;9.13;;;;;;;;;;5073400;28;20024;-67
2022/01/16 03:17:01;;;;;;;14.55;8.65;;;;;;;;;;5073136;28;20408;-68
2022/01/16 03:22:11;;;;;;;13.40;7.57;;;;;;;;;;5073230;28;20451;-67
2022/01/16 03:24:42;;;;;;;13.63;7.38;;;;;;;;;;5073361;28;20523;-67
2022/01/16 03:27:08;;;;;;;;;;;;;;;;;;5073648;28;20034;-67
2022/01/16 03:29:34;;;;;;;15.32;7.78;;;;;;;;;;5073074;28;19948;-67
2022/01/16 03:32:02;;;;;;;13.35;7.53;;;;;;;;;;5073363;28;20049;-67
2022/01/16 03:34:28;;;;;;;14.68;7.78;;;;;;;;;;5072895;28;20024;-68
2022/01/16 03:36:53;;;;;;;15.65;7.90;;;;;;;;;;5072866;28;20377;-68
2022/01/16 03:39:20;;;;;;;14.13;7.65;;;;;;;;;;5072862;28;20041;-67
2022/01/16 03:41:45;;;;;;;12.98;7.15;;;;;;;;;;5072962;28;20033;-68
2022/01/16 03:44:11;;;;;;;17.35;7.95;;;;;;;;;;5073233;28;20035;-67
2022/01/16 03:46:39;;;;;;;13.90;8.20;;;;;;;;;;5072725;28;20029;-68
2022/01/16 03:49:07;;;;;;;14.35;7.93;;;;;;;;;;5072947;28;20039;-68
2022/01/16 03:51:33;;;;;;;13.45;7.35;;;;;;;;;;5072510;28;20048;-68
2022/01/16 03:53:59;;;;;;;12.68;7.00;;;;;;;;;;5072576;28;20032;-69
2022/01/16 03:56:24;;;;;;;13.30;7.47;;;;;;;;;;5071945;28;20093;-66
2022/01/16 03:58:50;;;;;;;11.68;7.20;;;;;;;;;;5072302;28;20028;-68
2022/01/16 04:01:16;;;;;;;15.57;8.10;;;;;;;;;;5072735;28;20040;-67
2022/01/16 04:03:41;;;;;;;14.30;7.38;;;;;;;;;;5073013;28;20044;-68
2022/01/16 04:06:07;;;;;;;14.57;7.82;;;;;;;;;;5072510;28;20032;-67
2022/01/16 04:08:32;;;;;;;14.60;8.15;;;;;;;;;;5072136;28;20028;-67
2022/01/16 04:10:59;;;;;;;16.52;7.68;;;;;;;;;;5072273;28;20306;-69
2022/01/16 04:13:25;;;;;;;17.27;7.30;;;;;;;;;;5072366;28;20534;-69
2022/01/16 04:15:50;;;;;;;11.25;6.45;;;;;;;;;;5072197;28;20044;-67
2022/01/16 04:18:15;;;;;;;13.98;7.18;;;;;;;;;;5072117;28;20491;-68
2022/01/16 04:20:41;;;;;;;11.75;6.75;;;;;;;;;;5072277;28;20075;-68
2022/01/16 04:23:09;;;;;;;13.43;7.72;;;;;;;;;;5072203;28;20456;-67
2022/01/16 04:25:35;;;;;;;14.00;7.40;;;;;;;;;;5072117;28;20031;-67
2022/01/16 04:28:01;;;;;;;14.27;6.65;;;;;;;;;;5071919;28;20032;-69
2022/01/16 04:30:26;;;;;;;13.63;7.03;;;;;;;;;;5072261;28;20025;-67
2022/01/16 04:32:52;;;;;;;16.25;8.05;;;;;;;;;;5072022;28;20258;-67
2022/01/16 04:35:17;;;;;;;19.58;8.77;;;;;;;;;;5072222;28;20435;-67
2022/01/16 04:37:43;;;;;;;19.20;8.18;;;;;;;;;;5071867;28;20020;-68
2022/01/16 04:40:10;;;;;;;17.98;9.63;;;;;;;;;;5072090;28;20111;-68
2022/01/16 04:45:19;;;;;;;16.48;9.02;;;;;;;;;;5071500;28;20036;-68
2022/01/16 04:47:46;;;;;;;20.30;9.52;;;;;;;;;;5071770;28;20029;-67
2022/01/16 04:50:13;;;;;;;14.48;7.68;;;;;;;;;;5072156;28;20056;-68
2022/01/16 04:52:39;;;;;;;15.10;8.40;;;;;;;;;;5071690;28;20036;-69
2022/01/16 04:55:08;;;;;;;15.38;8.70;;;;;;;;;;5071492;28;20027;-69
2022/01/16 04:57:33;;;;;;;16.67;9.00;;;;;;;;;;5071393;28;20112;-69
2022/01/16 04:59:58;;;;;;;15.90;9.25;;;;;;;;;;5071151;28;20103;-68
2022/01/16 05:02:24;;;;;;;16.83;9.23;;;;;;;;;;5071657;28;20029;-69
2022/01/16 05:04:49;;;;;;;17.83;9.27;;;;;;;;;;5071389;28;20032;-68
2022/01/16 05:07:15;;;;;;;16.23;8.98;;;;;;;;;;5071199;28;20032;-69
2022/01/16 05:09:40;;;;;;;16.38;9.10;;;;;;;;;;5069200;28;20028;-69
2022/01/16 05:12:11;;;;;;;14.98;8.30;;;;;;;;;;5071335;28;20032;-68
2022/01/16 05:17:21;;;;;;;12.30;7.57;;;;;;;;;;5070584;28;20194;-68
2022/01/16 05:19:47;;;;;;;14.43;8.00;;;;;;;;;;5070952;28;20119;-69
2022/01/16 05:22:12;;;;;;;17.77;8.50;;;;;;;;;;5071133;28;20487;-68
2022/01/16 05:24:38;;;;;;;17.33;8.20;;;;;;;;;;5071158;28;20290;-68
2022/01/16 05:27:05;;;;;;;13.98;7.55;;;;;;;;;;5071070;28;20028;-69
2022/01/16 05:29:30;;;;;;;14.15;7.63;;;;;;;;;;5069537;28;20039;-67
2022/01/16 05:31:56;;;;;;;13.13;7.70;;;;;;;;;;5070799;28;20024;-68
2022/01/16 05:34:25;;;;;;;11.98;6.90;;;;;;;;;;5070728;28;20031;-68
2022/01/16 05:36:51;;;;;;;15.50;7.03;;;;;;;;;;5070442;28;20032;-68
2022/01/16 05:39:17;;;;;;;12.00;6.63;;;;;;;;;;5070731;28;20047;-68
2022/01/16 05:41:42;;;;;;;12.68;6.68;;;;;;;;;;5070741;28;20095;-68
2022/01/16 05:44:07;;;;;;;13.48;6.78;;;;;;;;;;5069330;28;20033;-67
2022/01/16 05:46:33;;;;;;;11.52;6.97;;;;;;;;;;5070684;28;20020;-68
2022/01/16 05:48:58;;;;;;;12.40;6.85;;;;;;;;;;5070191;28;20070;-67
2022/01/16 05:51:24;;;;;;;12.73;7.03;;;;;;;;;;5070403;28;20060;-69
2022/01/16 05:53:51;;;;;;;15.60;7.40;;;;;;;;;;5070836;28;20115;-67
2022/01/16 05:56:16;;;;;;;14.48;7.15;;;;;;;;;;5070453;28;20028;-68
2022/01/16 05:58:42;;;;;;;14.65;7.20;;;;;;;;;;5070798;28;20048;-68
2022/01/16 06:01:08;;;;;;;11.30;6.70;;;;;;;;;;5070739;28;20029;-68
2022/01/16 06:03:33;;;;;;;16.55;7.20;;;;;;;;;;5070468;28;20464;-68
2022/01/16 06:05:59;;;;;;;14.65;7.38;;;;;;;;;;5070123;28;20129;-68
2022/01/16 06:08:24;;;;;;;12.95;6.85;;;;;;;;;;5070180;28;20028;-68
2022/01/16 06:10:50;;;;;;;13.23;6.35;;;;;;;;;;5070445;28;20452;-68
2022/01/16 06:13:15;;;;;;;10.82;6.30;;;;;;;;;;5070438;28;20016;-68
2022/01/16 06:15:41;;;;;;;12.82;6.90;;;;;;;;;;5070105;28;20043;-67
2022/01/16 06:18:07;;;;;;;14.35;6.47;;;;;;;;;;5070403;28;20032;-68
2022/01/16 06:20:33;;;;;;;10.95;6.60;;;;;;;;;;5070024;28;20029;-68
2022/01/16 06:23:00;;;;;;;13.50;7.32;;;;;;;;;;5070064;28;20093;-69
2022/01/16 06:25:26;;;;;;;13.88;7.20;;;;;;;;;;5070038;28;20020;-68
2022/01/16 06:27:52;;;;;;;13.60;7.43;;;;;;;;;;5069785;28;20387;-68
2022/01/16 06:30:18;;;;;;;16.92;8.25;;;;;;;;;;5070150;28;20052;-69
2022/01/16 06:32:44;;;;;;;21.25;10.15;;;;;;;;;;5070057;28;20020;-68
2022/01/16 06:35:10;;;;;;;27.60;12.25;;;;;;;;;;5070114;28;20428;-67
2022/01/16 06:37:36;;;;;;;23.30;10.98;;;;;;;;;;5069725;28;20510;-67
2022/01/16 06:40:03;;;;;;;24.30;11.48;;;;;;;;;;5069791;28;20094;-69
2022/01/16 06:42:29;;;;;;;20.73;10.70;;;;;;;;;;5069972;28;20024;-68
2022/01/16 06:44:54;;;;;;;17.58;10.02;;;;;;;;;;5069864;28;20157;-68
2022/01/16 06:47:20;;;;;;;16.08;8.32;;;;;;;;;;5069921;28;20232;-69
2022/01/16 06:49:45;;;;;;;15.82;9.30;;;;;;;;;;5069712;28;20028;-68
2022/01/16 06:52:11;;;;;;;16.35;9.25;;;;;;;;;;5070020;28;20201;-69
2022/01/16 06:54:37;;;;;;;16.50;9.70;;;;;;;;;;5069870;28;20059;-68
2022/01/16 06:57:03;;;;;;;18.67;9.05;;;;;;;;;;5069776;28;20028;-69
2022/01/16 06:59:28;;;;;;;16.35;9.15;;;;;;;;;;5069340;28;20051;-67
2022/01/16 07:01:54;;;;;;;18.33;9.13;;;;;;;;;;5069739;28;20025;-70
2022/01/16 07:04:19;;;;;;;23.73;11.02;;;;;;;;;;5069733;28;20032;-69
2022/01/16 07:06:45;;;;;;;19.02;9.40;;;;;;;;;;5069652;28;20025;-69
2022/01/16 07:09:10;;;;;;;25.05;12.30;;;;;;;;;;5069483;28;20029;-68
2022/01/16 07:11:36;;;;;;;23.50;12.57;;;;;;;;;;5069565;28;20024;-69
2022/01/16 07:14:02;;;;;;;19.33;10.73;;;;;;;;;;5069317;28;20036;-69
2022/01/16 07:16:27;;;;;;;19.23;10.65;;;;;;;;;;5069269;28;20040;-67
2022/01/16 07:18:53;;;;;;;18.05;9.55;;;;;;;;;;5069259;28;20035;-67
2022/01/16 07:21:18;;;;;;;16.88;9.45;;;;;;;;;;5069817;28;20064;-67
2022/01/16 07:23:46;;;;;;;16.25;8.48;;;;;;;;;;5069608;28;20264;-69
2022/01/16 07:26:15;;;;;;;12.88;7.50;;;;;;;;;;5069592;28;20025;-68
2022/01/16 07:28:40;;;;;;;12.93;7.32;;;;;;;;;;5069456;28;20055;-69
2022/01/16 07:31:06;;;;;;;15.45;7.38;;;;;;;;;;5069196;28;20052;-69
2022/01/16 07:33:31;;;;;;;14.85;8.00;;;;;;;;;;5072507;28;20070;-68
2022/01/16 07:35:57;;;;;;;13.48;6.50;;;;;;;;;;5072900;28;20078;-68
2022/01/16 07:38:22;;;;;;;13.45;6.45;;;;;;;;;;5072927;28;20549;-67
2022/01/16 07:40:47;;;;;;;13.07;6.40;;;;;;;;;;5072929;28;20025;-68
2022/01/16 07:43:14;;;;;;;12.10;6.95;;;;;;;;;;5072882;28;20074;-68
2022/01/16 07:45:39;;;;;;;17.20;8.02;;;;;;;;;;5072880;28;20024;-68
2022/01/16 07:48:07;;;;;;;14.27;8.57;;;;;;;;;;5072403;28;20029;-67
2022/01/16 07:50:33;;;;;;;18.17;9.68;;;;;;;;;;5072721;28;20032;-68
2022/01/16 07:52:58;;;;;;;17.10;10.10;;;;;;;;;;5073162;28;20287;-68
2022/01/16 07:55:26;;;;;;;18.33;8.48;;;;;;;;;;5072800;28;20641;-68
2022/01/16 07:57:53;;;;;;;15.45;8.57;;;;;;;;;;5072615;28;20268;-68
2022/01/16 08:00:20;;;;;;;13.82;8.10;;;;;;;;;;5073041;28;20309;-68
2022/01/16 08:02:46;;;;;;;15.82;7.30;;;;;;;;;;5072886;28;20020;-68
2022/01/16 08:05:12;;;;;;;14.45;6.93;;;;;;;;;;5071202;28;20029;-68
2022/01/16 08:07:37;;;;;;;11.60;7.15;;;;;;;;;;5072388;28;20456;-68
2022/01/16 08:10:03;;;;;;;13.23;7.47;;;;;;;;;;5072131;28;20016;-68
2022/01/16 08:12:28;;;;;;;11.68;6.85;;;;;;;;;;5072521;28;20459;-68
2022/01/16 08:14:54;;;;;;;13.18;7.40;;;;;;;;;;5072235;28;20206;-68
2022/01/16 08:17:19;;;;;;;12.73;6.95;;;;;;;;;;5070858;28;20041;-68
2022/01/16 08:19:45;;;;;;;13.73;7.95;;;;;;;;;;5071985;28;20025;-68
2022/01/16 08:22:10;;;;;;;13.95;8.20;;;;;;;;;;5072164;28;20047;-69
2022/01/16 08:24:37;;;;;;;13.18;8.18;;;;;;;;;;5071890;28;20384;-69
2022/01/16 08:27:03;;;;;;;13.52;8.43;;;;;;;;;;5072102;28;20063;-69
2022/01/16 08:29:28;;;;;;;15.20;9.02;;;;;;;;;;5071792;28;20079;-67
2022/01/16 08:31:54;;;;;;;16.20;9.10;;;;;;;;;;5072229;28;20438;-69
2022/01/16 08:34:20;;;;;;;16.25;8.68;;;;;;;;;;5071951;28;20532;-69
2022/01/16 08:36:45;;;;;;;12.70;8.02;;;;;;;;;;5071828;28;20376;-69
2022/01/16 08:39:10;;;;;;;14.30;8.98;;;;;;;;;;5071755;28;20071;-69
2022/01/16 08:41:37;;;;;;;14.52;7.82;;;;;;;;;;5071660;28;20040;-69
2022/01/16 08:44:05;;;;;;;13.27;7.00;;;;;;;;;;5070973;28;20225;-69
2022/01/16 08:46:30;;;;;;;12.15;7.00;;;;;;;;;;5072182;28;20562;-70
2022/01/16 08:48:56;;;;;;;15.32;7.80;;;;;;;;;;5071694;28;20107;-67
2022/01/16 08:51:21;;;;;;;13.93;6.57;;;;;;;;;;5071793;28;20033;-69
2022/01/16 08:53:47;;;;;;;10.82;6.40;;;;;;;;;;5071566;28;20035;-69
2022/01/16 08:56:14;;;;;;;13.15;6.95;;;;;;;;;;5071109;28;20028;-68
2022/01/16 08:58:40;;;;;;;11.25;7.00;;;;;;;;;;5071620;28;20059;-69
2022/01/16 09:01:05;;;;;;;16.50;7.57;;;;;;;;;;5071323;28;20024;-67
2022/01/16 09:03:31;;;;;;;14.48;7.10;;;;;;;;;;5071500;28;20082;-67
2022/01/16 09:05:56;;;;;;;12.20;7.45;;;;;;;;;;5071473;28;20036;-67
2022/01/16 09:08:22;;;;;;;12.48;7.13;;;;;;;;;;5071014;28;20028;-69
2022/01/16 09:10:48;;;;;;;12.70;7.10;;;;;;;;;;5071138;28;20442;-69
2022/01/16 09:13:16;;;;;;;13.68;7.35;;;;;;;;;;5071071;28;20029;-69
2022/01/16 09:15:49;;;;;;;13.57;7.75;;;;;;;;;;5070919;28;20028;-69
2022/01/16 09:18:15;;;;;;;14.10;8.05;;;;;;;;;;5071011;28;20098;-67
2022/01/16 09:20:42;;;;;;;16.85;8.35;;;;;;;;;;5070895;28;20032;-69
2022/01/16 09:23:08;;;;;;;16.20;9.15;;;;;;;;;;5071014;28;20434;-69
2022/01/16 09:25:34;;;;;;;14.52;9.02;;;;;;;;;;5070943;28;20024;-69
2022/01/16 09:28:00;;;;;;;16.35;8.70;;;;;;;;;;5070783;28;20024;-69
2022/01/16 09:30:26;;;;;;;14.88;7.85;;;;;;;;;;5070572;28;20028;-69
2022/01/16 09:32:53;;;;;;;19.83;8.43;;;;;;;;;;5070582;28;20357;-69
2022/01/16 09:35:19;;;;;;;15.23;8.48;;;;;;;;;;5070803;28;20059;-69
2022/01/16 09:37:44;;;;;;;15.88;8.35;;;;;;;;;;5070747;28;20482;-70
2022/01/16 09:40:12;;;;;;;10.00;6.18;;;;;;;;;;5070694;28;20017;-67
2022/01/16 09:42:38;;;;;;;15.50;6.47;;;;;;;;;;5070495;28;20052;-68
2022/01/16 09:45:07;;;;;;;11.05;6.53;;;;;;;;;;5070486;28;20055;-68
2022/01/16 09:47:33;;;;;;;12.40;5.78;;;;;;;;;;5070515;28;20067;-68
2022/01/16 09:49:59;;;;;;;12.32;6.20;;;;;;;;;;5070159;28;20036;-69
2022/01/16 09:52:24;;;;;;;11.90;5.68;;;;;;;;;;5070569;28;20029;-69
2022/01/16 09:54:50;;;;;;;13.82;6.75;;;;;;;;;;5070107;28;20032;-70
2022/01/16 09:57:16;;;;;;;12.40;6.40;;;;;;;;;;5070302;28;20036;-69
2022/01/16 09:59:44;;;;;;;10.80;6.05;;;;;;;;;;5070138;28;20035;-69
2022/01/16 10:02:10;;;;;;;11.25;5.72;;;;;;;;;;5070203;28;20169;-68
2022/01/16 10:04:39;;;;;;;12.43;5.78;;;;;;;;;;5070515;28;20119;-68
2022/01/16 10:07:10;;;;;;;11.00;5.82;;;;;;;;;;5070288;28;20032;-69
2022/01/16 10:09:36;;;;;;;;;;;;;;;;;;5069483;28;20024;-68
2022/01/16 10:12:06;;;;;;;8.38;5.18;;;;;;;;;;5070282;28;19912;-68
2022/01/16 10:14:37;;;;;;;10.13;5.22;;;;;;;;;;5070317;28;20101;-68
2022/01/16 10:17:16;;;;;;;9.63;4.90;;;;;;;;;;5070152;28;20250;-70
2022/01/16 10:19:43;;;;;;;9.65;5.50;;;;;;;;;;5069820;28;20400;-68
2022/01/16 10:22:11;;;;;;;8.60;5.20;;;;;;;;;;5070251;28;20391;-68
2022/01/16 10:24:41;;;;;;;9.57;4.75;;;;;;;;;;5069997;28;20025;-68
2022/01/16 10:27:07;;;;;;;9.63;4.35;;;;;;;;;;5070316;28;20024;-68
2022/01/16 10:29:51;;;;;;;7.80;4.20;;;;;;;;;;5070000;28;20036;-68
2022/01/16 10:32:22;;;;;;;8.82;4.47;;;;;;;;;;5070170;28;20031;-68
2022/01/16 10:35:06;;;;;;;;;;;;;;;;;;5070362;28;20388;-66
2022/01/16 10:37:32;;;;;;;9.82;4.78;;;;;;;;;;5069846;28;19917;-68
2022/01/16 10:39:58;;;;;;;8.35;4.68;;;;;;;;;;5069875;28;20107;-69
2022/01/16 10:42:25;;;;;;;10.07;4.60;;;;;;;;;;5070148;28;20031;-68
2022/01/16 10:45:14;;;;;;;8.15;4.63;;;;;;;;;;5070056;28;20100;-68
2022/01/16 10:47:39;;;;;;;8.13;4.60;;;;;;;;;;5070160;28;20025;-68
2022/01/16 10:50:08;;;;;;;10.23;5.15;;;;;;;;;;5069783;28;20032;-68
2022/01/16 10:53:04;;;;;;;9.18;4.78;;;;;;;;;;5069953;28;20502;-68
2022/01/16 10:55:40;;;;;;;6.57;3.92;;;;;;;;;;5069662;28;20029;-68
2022/01/16 10:58:10;;;;;;;8.88;4.50;;;;;;;;;;5069724;28;20087;-68
2022/01/16 11:00:36;;;;;;;8.20;4.80;;;;;;;;;;5069377;28;20025;-68
2022/01/16 11:03:05;;;;;;;9.95;4.65;;;;;;;;;;5069687;28;20035;-68
2022/01/16 11:05:40;;;;;;;10.38;4.50;;;;;;;;;;5069908;28;20033;-68
2022/01/16 11:08:12;;;;;;;8.73;4.22;;;;;;;;;;5072114;28;20041;-69
2022/01/16 11:10:42;;;;;;;8.90;4.20;;;;;;;;;;5073209;28;20499;-68
2022/01/16 11:13:10;;;;;;;;;;;;;;;;;;5073884;28;20099;-66
2022/01/16 11:15:37;;;;;;;8.85;3.83;;;;;;;;;;5073154;28;19912;-68
2022/01/16 11:18:03;;;;;;;7.07;3.97;;;;;;;;;;5073224;28;20052;-68
2022/01/16 11:20:35;;;;;;;6.85;3.90;;;;;;;;;;5073107;28;20029;-68
2022/01/16 11:23:28;;;;;;;6.82;3.95;;;;;;;;;;5073348;28;20032;-69
2022/01/16 11:26:02;;;;;;;8.80;4.32;;;;;;;;;;5073244;28;20024;-68
2022/01/16 11:28:28;;;;;;;8.50;4.38;;;;;;;;;;5073177;28;20035;-68
2022/01/16 11:30:59;;;;;;;9.93;4.70;;;;;;;;;;5073160;28;20024;-68
2022/01/16 11:33:27;;;;;;;10.15;4.50;;;;;;;;;;5072973;28;20031;-68
2022/01/16 11:35:59;;;;;;;7.97;4.38;;;;;;;;;;5072980;28;20049;-68
2022/01/16 11:38:33;;;;;;;6.55;4.32;;;;;;;;;;5073207;28;20033;-67
2022/01/16 11:41:14;;;;;;;8.40;4.38;;;;;;;;;;5072795;28;20048;-68
2022/01/16 11:43:40;;;;;;;7.10;3.90;;;;;;;;;;5072869;28;20028;-68
2022/01/16 11:46:13;;;;;;;7.25;4.05;;;;;;;;;;5072624;28;20166;-68
2022/01/16 11:48:42;;;;;;;6.38;3.95;;;;;;;;;;5073058;28;20032;-68
2022/01/16 11:51:36;;;;;;;5.15;3.20;;;;;;;;;;5072758;28;20036;-68
2022/01/16 11:54:04;;;;;;;7.93;3.75;;;;;;;;;;5073341;28;20029;-68
2022/01/16 11:56:39;;;;;;;8.02;4.00;;;;;;;;;;5072734;28;20029;-68
2022/01/16 11:59:11;;;;;;;7.15;3.50;;;;;;;;;;5072875;28;20083;-68
2022/01/16 12:01:43;;;;;;;6.18;3.30;;;;;;;;;;5072699;28;20073;-68
2022/01/16 12:04:30;;;;;;;7.53;3.30;;;;;;;;;;5072602;28;20035;-67
2022/01/16 12:06:58;;;;;;;6.97;3.53;;;;;;;;;;5071148;28;20032;-68
2022/01/16 12:12:13;;;;;;;5.70;3.05;;;;;;;;;;5072668;28;20044;-68
2022/01/16 12:14:55;;;;;;;6.38;3.45;;;;;;;;;;5072148;28;20025;-68
2022/01/16 12:17:44;;;;;;;6.10;3.30;;;;;;;;;;5071774;28;20560;-68
2022/01/16 12:20:22;;;;;;;6.43;3.22;;;;;;;;;;5072041;28;20623;-68
2022/01/16 12:23:09;;;;;;;7.47;3.47;;;;;;;;;;5072642;28;20559;-68
2022/01/16 12:25:35;;;;;;;7.10;3.40;;;;;;;;;;5072313;28;20021;-68
2022/01/16 12:28:04;;;;;;;5.65;2.92;;;;;;;;;;5072034;28;20047;-68
2022/01/16 12:30:49;;;;;;;6.45;3.22;;;;;;;;;;5072066;28;20383;-67
2022/01/16 12:33:14;;;;;;;4.93;2.90;;;;;;;;;;5071974;28;20052;-68
2022/01/16 12:35:42;;;;;;;5.55;3.28;;;;;;;;;;5071820;28;20067;-67
2022/01/16 12:38:23;;;;;;;6.97;3.40;;;;;;;;;;5071765;28;20029;-68
2022/01/16 12:40:58;;;;;;;5.93;3.30;;;;;;;;;;5071664;28;20075;-68
2022/01/16 12:43:31;;;;;;;8.23;3.95;;;;;;;;;;5071738;28;20035;-68
2022/01/16 12:45:59;;;;;;;6.38;3.67;;;;;;;;;;5071488;28;20225;-68
2022/01/16 12:48:24;;;;;;;6.88;3.88;;;;;;;;;;5071616;28;20063;-68
2022/01/16 12:50:57;;;;;;;7.10;3.80;;;;;;;;;;5071284;28;20060;-68
2022/01/16 12:53:41;;;;;;;8.85;4.18;;;;;;;;;;5071441;28;20032;-68
2022/01/16 12:56:25;;;;;;;6.50;3.60;;;;;;;;;;5071568;28;20051;-68
2022/01/16 12:59:11;;;;;;;8.10;3.60;;;;;;;;;;5071356;28;20024;-69
2022/01/16 13:01:58;;;;;;;6.20;3.50;;;;;;;;;;5063789;28;20071;-68
2022/01/16 13:04:31;;;;;;;6.65;3.72;;;;;;;;;;5071159;28;20040;-69
2022/01/16 13:06:59;;;;;;;8.40;3.50;;;;;;;;;;5070363;28;20083;-71
2022/01/16 13:09:27;;;;;;;6.82;3.58;;;;;;;;;;5071262;28;20021;-68
2022/01/16 13:11:59;;;;;;;7.05;3.70;;;;;;;;;;5071012;28;20028;-68
2022/01/16 13:14:28;;;;;;;7.43;3.33;;;;;;;;;;5071151;28;20016;-68
2022/01/16 13:17:03;;;;;;;6.75;3.42;;;;;;;;;;5070874;28;20040;-68
2022/01/16 13:19:56;;;;;;;8.25;3.60;;;;;;;;;;5071590;28;20037;-68
2022/01/16 13:22:24;;;;;;;6.72;3.33;;;;;;;;;;5070669;28;20032;-68
2022/01/16 13:24:58;;;;;;;6.22;3.28;;;;;;;;;;5071033;28;20082;-68
2022/01/16 13:27:28;;;;;;;5.75;3.13;;;;;;;;;;5070991;28;20032;-69
2022/01/16 13:30:26;;;;;;;8.02;3.22;;;;;;;;;;5069883;28;20077;-68
2022/01/16 13:32:52;;;;;;;5.82;3.00;;;;;;;;;;5070742;28;20045;-68
2022/01/16 13:35:21;;;;;;;5.63;3.05;;;;;;;;;;5071012;28;20051;-68
2022/01/16 13:37:49;;;;;;;5.97;3.00;;;;;;;;;;5070851;28;20044;-68
2022/01/16 13:40:18;;;;;;;5.93;3.22;;;;;;;;;;5070497;28;20082;-68
2022/01/16 13:45:51;;;;;;;5.85;3.30;;;;;;;;;;5070502;28;20044;-67
2022/01/16 13:48:28;;;;;;;7.05;3.15;;;;;;;;;;5072182;28;20499;-67
2022/01/16 13:51:02;;;;;;;5.18;3.00;;;;;;;;;;5069975;28;20114;-68
2022/01/16 13:53:34;;;;;;;5.97;3.00;;;;;;;;;;5075439;28;20040;-68
2022/01/16 13:56:02;;;;;;;5.70;3.10;;;;;;;;;;5072081;28;20730;-68
2022/01/16 13:58:30;;;;;;;4.93;3.00;;;;;;;;;;5073531;28;20032;-67
2022/01/16 14:01:00;;;;;;;6.95;3.20;;;;;;;;;;5075417;28;20126;-66
2022/01/16 14:03:29;;;;;;;5.05;3.10;;;;;;;;;;5074586;28;20029;-66
2022/01/16 14:05:57;;;;;;;4.65;2.58;;;;;;;;;;5072504;28;20407;-67
2022/01/16 14:08:25;;;;;;;7.07;3.05;;;;;;;;;;5077427;28;20036;-66
2022/01/16 14:10:53;;;;;;;6.47;3.10;;;;;;;;;;5073364;28;20308;-66
2022/01/16 14:13:18;;;;;;;4.95;3.00;;;;;;;;;;5073711;28;20043;-67
2022/01/16 14:16:05;;;;;;;6.45;3.35;;;;;;;;;;5070466;28;20091;-68
2022/01/16 14:19:18;;;;;;;5.90;3.10;;;;;;;;;;5072309;28;20060;-66
2022/01/16 14:24:04;;;;;;;5.43;3.20;;;;;;;;;;5070072;28;20055;-66
2022/01/16 14:26:30;;;;;;;18.58;7.78;;;;;;;;;;5071148;28;20082;-66
2022/01/16 14:28:56;;;;;;;19.17;7.93;;;;;;;;;;5072519;28;20468;-66
2022/01/16 14:31:21;;;;;;;8.60;4.20;;;;;;;;;;5070839;28;20024;-67
2022/01/16 14:33:51;;;;;;;10.57;4.78;;;;;;;;;;5074484;28;20021;-68
2022/01/16 14:36:17;;;;;;;7.53;3.90;;;;;;;;;;5067770;28;20025;-68
2022/01/16 14:38:42;;;;;;;7.95;4.03;;;;;;;;;;5067867;28;20290;-69
2022/01/16 14:41:08;;;;;;;8.23;3.80;;;;;;;;;;5068906;28;20043;-67
2022/01/16 14:43:54;;;;;;;8.27;3.60;;;;;;;;;;5073826;28;20078;-70
2022/01/16 14:46:19;;;;;;;10.02;3.33;;;;;;;;;;5073632;28;20057;-68
2022/01/16 14:48:46;;;;;;;7.70;3.53;;;;;;;;;;5073905;28;20063;-68
2022/01/16 14:51:13;;;;;;;7.35;3.72;;;;;;;;;;5087974;28;20115;-70
2022/01/16 14:53:39;;;;;;;6.10;3.40;;;;;;;;;;5092816;28;20020;-67
2022/01/16 14:56:04;;;;;;;7.38;3.40;;;;;;;;;;5079301;28;20086;-69
2022/01/16 14:58:30;;;;;;;6.90;3.60;;;;;;;;;;5072843;28;20025;-69
2022/01/16 15:00:55;;;;;;;6.15;3.10;;;;;;;;;;5070675;28;20020;-66
2022/01/16 15:03:21;;;;;;;5.10;3.22;;;;;;;;;;5072310;28;20024;-68
2022/01/16 15:05:46;;;;;;;6.85;3.50;;;;;;;;;;5072687;28;20044;-68
2022/01/16 15:08:12;;;;;;;6.65;3.63;;;;;;;;;;5073021;28;20446;-67
2022/01/16 15:10:39;;;;;;;7.18;3.70;;;;;;;;;;5072213;28;20016;-68
2022/01/16 15:13:04;;;;;;;7.60;3.97;;;;;;;;;;5072462;28;20032;-68
2022/01/16 15:15:29;;;;;;;7.68;4.28;;;;;;;;;;5072119;28;20025;-68
2022/01/16 15:17:57;;;;;;;8.55;4.50;;;;;;;;;;5075122;28;20283;-68
2022/01/16 15:20:28;;;;;;;8.18;4.68;;;;;;;;;;5072468;28;20028;-67
2022/01/16 15:22:57;;;;;;;6.55;3.70;;;;;;;;;;5071757;28;20017;-68
2022/01/16 15:25:29;;;;;;;10.07;4.63;;;;;;;;;;5071998;28;20496;-68
2022/01/16 15:27:55;;;;;;;8.13;4.68;;;;;;;;;;5073765;28;20263;-68
2022/01/16 15:30:21;;;;;;;8.65;4.53;;;;;;;;;;5071822;28;20533;-68
2022/01/16 15:32:46;;;;;;;12.57;6.60;;;;;;;;;;5071748;28;20040;-67